Time;durP1;ratioP1;P1;durP2;ratioP2;P2;SDS_P1;SDS_P2;PMS_P1;PMS_P2;Temp;Humidity;BMP_temperature;BMP_pressure;BME280_temperature;BME280_humidity;BME280_pressure;Samples;Min_cycle;Max_cycle;Signal;HPM_P1;HPM_P2
2023/12/01 00:01:51;;;;;;;29.63;13.35;;;2.00;99.90;;;;;;4968062;28;20121;-66
2023/12/01 00:04:17;;;;;;;32.47;13.52;;;2.00;99.90;;;;;;4969421;28;20093;-64
2023/12/01 00:06:43;;;;;;;31.40;13.48;;;2.00;99.90;;;;;;4968103;28;20169;-65
2023/12/01 00:09:08;;;;;;;30.98;13.52;;;1.90;99.90;;;;;;4967301;28;20523;-65
2023/12/01 00:11:34;;;;;;;28.25;12.27;;;1.90;99.90;;;;;;4967404;28;20026;-64
2023/12/01 00:13:59;;;;;;;28.75;12.57;;;1.90;99.90;;;;;;4968635;28;20424;-64
2023/12/01 00:16:26;;;;;;;30.67;13.35;;;2.00;99.90;;;;;;4968838;28;20069;-64
2023/12/01 00:18:52;;;;;;;30.92;13.10;;;2.00;99.90;;;;;;4968912;28;20499;-66
2023/12/01 00:21:17;;;;;;;31.65;14.13;;;2.00;99.90;;;;;;4967362;28;20035;-64
2023/12/01 00:23:43;;;;;;;36.63;14.00;;;1.90;99.90;;;;;;4957168;28;20054;-64
2023/12/01 00:26:09;;;;;;;30.00;13.45;;;1.90;99.90;;;;;;4974331;28;20054;-64
2023/12/01 00:28:35;;;;;;;32.85;14.43;;;1.90;99.90;;;;;;4969556;28;20529;-64
2023/12/01 00:31:01;;;;;;;33.72;14.02;;;1.90;99.90;;;;;;4973985;28;20376;-64
2023/12/01 00:33:26;;;;;;;31.50;13.32;;;1.90;99.90;;;;;;4981257;28;20037;-64
2023/12/01 00:35:52;;;;;;;35.13;14.30;;;1.90;99.90;;;;;;4976494;28;20038;-66
2023/12/01 00:38:19;;;;;;;32.83;13.43;;;1.90;99.90;;;;;;4971433;28;20559;-64
2023/12/01 00:40:44;;;;;;;30.48;13.40;;;1.90;99.90;;;;;;4984060;28;20038;-65
2023/12/01 00:43:12;;;;;;;32.00;13.23;;;1.90;99.90;;;;;;4974169;28;20510;-65
2023/12/01 00:45:38;;;;;;;29.13;13.40;;;1.90;99.90;;;;;;4967396;28;20038;-65
2023/12/01 00:48:03;;;;;;;30.45;13.02;;;1.90;99.90;;;;;;4974853;28;20053;-64
2023/12/01 00:50:29;;;;;;;29.33;12.65;;;1.90;99.90;;;;;;4983637;28;20042;-64
2023/12/01 00:52:55;;;;;;;32.72;12.75;;;2.00;99.90;;;;;;4979675;28;20109;-66
2023/12/01 00:55:20;;;;;;;30.02;13.48;;;2.00;99.90;;;;;;4978216;28;20061;-64
2023/12/01 00:57:46;;;;;;;26.63;12.18;;;2.00;99.90;;;;;;4983232;28;20444;-64
2023/12/01 01:00:12;;;;;;;29.92;13.32;;;2.00;99.90;;;;;;4952405;28;20034;-64
2023/12/01 01:02:37;;;;;;;33.22;14.43;;;2.00;99.90;;;;;;4968051;28;20043;-63
2023/12/01 01:05:03;;;;;;;31.92;13.75;;;2.00;99.90;;;;;;4978504;28;20030;-64
2023/12/01 01:07:29;;;;;;;35.90;14.27;;;2.00;99.90;;;;;;4987151;28;20034;-66
2023/12/01 01:09:54;;;;;;;37.28;15.57;;;2.00;99.90;;;;;;4976566;28;20034;-68
2023/12/01 01:12:21;;;;;;;35.75;15.05;;;2.00;99.90;;;;;;4975951;28;20026;-67
2023/12/01 01:14:47;;;;;;;37.05;15.15;;;2.00;99.90;;;;;;4977750;28;20084;-66
2023/12/01 01:17:12;;;;;;;34.35;15.02;;;2.00;99.90;;;;;;4979283;28;20125;-66
2023/12/01 01:19:38;;;;;;;32.28;13.95;;;2.00;99.90;;;;;;4972434;28;20038;-67
2023/12/01 01:22:03;;;;;;;37.80;15.23;;;2.00;99.90;;;;;;4983678;28;20037;-68
2023/12/01 01:24:29;;;;;;;35.33;15.50;;;2.00;99.90;;;;;;4980528;28;20487;-64
2023/12/01 01:26:55;;;;;;;36.22;15.23;;;2.00;99.90;;;;;;4971048;28;20045;-65
2023/12/01 01:29:20;;;;;;;35.28;15.23;;;2.00;99.90;;;;;;4971815;28;20049;-64
2023/12/01 01:31:46;;;;;;;30.98;14.32;;;2.00;99.90;;;;;;4971384;28;20110;-64
2023/12/01 01:34:11;;;;;;;33.15;14.77;;;2.00;99.90;;;;;;4978419;28;20054;-64
2023/12/01 01:36:37;;;;;;;29.75;13.30;;;2.00;99.90;;;;;;4970063;28;20030;-64
2023/12/01 01:39:02;;;;;;;32.85;13.98;;;2.00;99.90;;;;;;4970601;28;20054;-66
2023/12/01 01:41:28;;;;;;;38.08;15.48;;;2.00;99.90;;;;;;4969280;28;20230;-65
2023/12/01 01:43:54;;;;;;;34.50;15.05;;;2.00;99.90;;;;;;4971318;28;20126;-64
2023/12/01 01:46:20;;;;;;;34.22;14.23;;;1.90;99.90;;;;;;4970518;28;20031;-65
2023/12/01 01:48:46;;;;;;;32.50;14.32;;;1.90;99.90;;;;;;4970680;28;20555;-64
2023/12/01 01:51:14;;;;;;;32.95;13.82;;;1.90;99.90;;;;;;4969693;28;20035;-65
2023/12/01 01:53:43;;;;;;;33.30;14.82;;;1.90;99.90;;;;;;4955091;28;20049;-64
2023/12/01 01:56:14;;;;;;;34.10;14.77;;;1.90;99.90;;;;;;4970148;28;20038;-65
2023/12/01 01:58:40;;;;;;;;;;;1.90;99.90;;;;;;4963709;28;20031;-65
2023/12/01 02:01:07;;;;;;;32.08;13.65;;;1.90;99.90;;;;;;4969052;28;20037;-64
2023/12/01 02:03:33;;;;;;;37.08;14.57;;;1.80;99.90;;;;;;4970301;28;20117;-64
2023/12/01 02:05:59;;;;;;;30.52;14.38;;;1.80;99.90;;;;;;4969490;28;21428;-66
2023/12/01 02:08:31;;;;;;;31.10;13.48;;;1.80;99.90;;;;;;4971018;28;20114;-64
2023/12/01 02:10:57;;;;;;;31.30;14.40;;;1.80;99.90;;;;;;4970065;28;20399;-64
2023/12/01 02:13:23;;;;;;;36.95;15.13;;;1.80;99.90;;;;;;4970363;28;20035;-64
2023/12/01 02:15:52;;;;;;;37.13;15.52;;;1.80;99.90;;;;;;4970835;28;20038;-66
2023/12/01 02:18:26;;;;;;;32.88;13.90;;;1.80;99.90;;;;;;4967063;28;20027;-63
2023/12/01 02:20:53;;;;;;;164.68;18.08;;;1.70;99.90;;;;;;4970897;28;20042;-64
2023/12/01 02:23:19;;;;;;;46.90;14.98;;;1.70;99.90;;;;;;4971022;28;20038;-64
2023/12/01 02:25:45;;;;;;;101.22;15.75;;;1.60;99.90;;;;;;4957515;28;20051;-64
2023/12/01 02:28:11;;;;;;;58.80;15.48;;;1.60;99.90;;;;;;4947712;28;20038;-65
2023/12/01 02:30:36;;;;;;;35.55;14.85;;;1.60;99.90;;;;;;4970751;28;20038;-64
2023/12/01 02:33:02;;;;;;;30.77;13.85;;;1.60;99.90;;;;;;4949665;28;20031;-66
2023/12/01 02:35:30;;;;;;;30.85;14.32;;;1.60;99.90;;;;;;4951360;28;20075;-64
2023/12/01 02:37:57;;;;;;;29.52;13.65;;;1.60;99.90;;;;;;4951128;28;20031;-64
2023/12/01 02:40:23;;;;;;;33.22;14.32;;;1.60;99.90;;;;;;4950558;28;20039;-63
2023/12/01 02:42:50;;;;;;;33.38;14.07;;;1.60;99.90;;;;;;4951411;28;20035;-65
2023/12/01 02:45:17;;;;;;;33.70;14.68;;;1.50;99.90;;;;;;4953159;28;20031;-64
2023/12/01 02:47:45;;;;;;;34.92;15.00;;;1.50;99.90;;;;;;4949949;28;20035;-65
2023/12/01 02:50:12;;;;;;;34.22;14.02;;;1.50;99.90;;;;;;4953977;28;20472;-64
2023/12/01 02:52:38;;;;;;;38.03;15.05;;;1.50;99.90;;;;;;4949914;28;20031;-64
2023/12/01 02:55:04;;;;;;;31.67;13.80;;;1.50;99.90;;;;;;4950504;28;20035;-66
2023/12/01 02:57:29;;;;;;;30.80;13.60;;;1.50;99.90;;;;;;4950014;28;20031;-68
2023/12/01 02:59:55;;;;;;;32.60;13.98;;;1.60;99.90;;;;;;4961829;28;20088;-67
2023/12/01 03:02:21;;;;;;;32.35;13.60;;;1.50;99.90;;;;;;4953526;28;20522;-67
2023/12/01 03:04:47;;;;;;;29.40;13.38;;;1.60;99.90;;;;;;4964928;28;20019;-67
2023/12/01 03:07:13;;;;;;;33.45;13.73;;;1.60;99.90;;;;;;4950693;28;20673;-67
2023/12/01 03:09:38;;;;;;;33.58;14.20;;;1.60;99.90;;;;;;4949632;28;20058;-64
2023/12/01 03:12:04;;;;;;;34.25;14.20;;;1.60;99.90;;;;;;4949878;28;20068;-66
2023/12/01 03:14:30;;;;;;;34.17;14.50;;;1.60;99.90;;;;;;4953223;28;20113;-64
2023/12/01 03:16:56;;;;;;;31.38;13.57;;;1.60;99.90;;;;;;4950377;28;20031;-65
2023/12/01 03:19:22;;;;;;;36.83;14.20;;;1.60;99.90;;;;;;4956758;28;20034;-64
2023/12/01 03:21:48;;;;;;;35.22;14.50;;;1.60;99.90;;;;;;4957859;28;20050;-65
2023/12/01 03:24:14;;;;;;;32.90;14.23;;;1.60;99.90;;;;;;4951989;28;20042;-67
2023/12/01 03:26:40;;;;;;;33.97;13.75;;;1.60;99.90;;;;;;4969266;28;20053;-64
2023/12/01 03:29:05;;;;;;;31.55;13.75;;;1.60;99.90;;;;;;4969427;28;20695;-66
2023/12/01 03:31:31;;;;;;;32.45;13.85;;;1.60;99.90;;;;;;4967648;28;20027;-65
2023/12/01 03:33:57;;;;;;;31.52;14.13;;;1.60;99.90;;;;;;4969376;28;20034;-64
2023/12/01 03:36:22;;;;;;;39.20;13.63;;;1.60;99.90;;;;;;4966456;28;20098;-65
2023/12/01 03:38:48;;;;;;;129.23;17.33;;;1.60;99.90;;;;;;4969655;28;20455;-66
2023/12/01 03:41:15;;;;;;;162.15;17.65;;;1.50;99.90;;;;;;4949792;28;20035;-65
2023/12/01 03:43:41;;;;;;;32.95;13.30;;;1.50;99.90;;;;;;4967971;28;20184;-65
2023/12/01 03:46:06;;;;;;;88.40;14.32;;;1.40;99.90;;;;;;4968603;28;20365;-66
2023/12/01 03:48:36;;;;;;;62.50;14.40;;;1.50;99.90;;;;;;4969278;28;20092;-66
2023/12/01 03:51:02;;;;;;;35.47;12.97;;;1.50;99.90;;;;;;4967971;28;20395;-65
2023/12/01 03:53:30;;;;;;;37.45;13.52;;;1.50;99.90;;;;;;4967076;28;20872;-64
2023/12/01 03:55:57;;;;;;;31.67;13.63;;;1.50;99.90;;;;;;4969498;28;20483;-64
2023/12/01 03:58:24;;;;;;;39.22;16.02;;;1.50;99.90;;;;;;4967920;28;20039;-64
2023/12/01 04:00:51;;;;;;;35.92;14.35;;;1.40;99.90;;;;;;4967209;28;20035;-65
2023/12/01 04:03:17;;;;;;;36.10;15.05;;;1.40;99.90;;;;;;4968058;28;20034;-64
2023/12/01 04:05:43;;;;;;;37.55;15.15;;;1.30;99.90;;;;;;4968365;28;20134;-65
2023/12/01 04:08:09;;;;;;;33.85;14.38;;;1.30;99.90;;;;;;4964224;28;20030;-66
2023/12/01 04:10:34;;;;;;;33.70;13.82;;;1.30;99.90;;;;;;4968349;28;20035;-64
2023/12/01 04:13:07;;;;;;;36.45;14.68;;;1.40;99.90;;;;;;4969146;28;20038;-65
2023/12/01 04:15:34;;;;;;;34.33;14.13;;;1.40;99.90;;;;;;4968936;28;20072;-65
2023/12/01 04:18:06;;;;;;;37.97;15.10;;;1.40;99.90;;;;;;4975969;28;20042;-65
2023/12/01 04:20:39;;;;;;;35.40;14.48;;;1.40;99.90;;;;;;4968506;28;20043;-64
2023/12/01 04:23:11;;;;;;;35.78;14.77;;;1.40;99.90;;;;;;4968864;28;20121;-66
2023/12/01 04:25:39;;;;;;;33.80;14.65;;;1.50;99.90;;;;;;4954707;28;20459;-65
2023/12/01 04:28:06;;;;;;;38.05;16.63;;;1.40;99.90;;;;;;4978170;28;20444;-64
2023/12/01 04:30:32;;;;;;;40.63;17.23;;;1.40;99.90;;;;;;4969621;28;20522;-65
2023/12/01 04:32:59;;;;;;;38.53;16.90;;;1.40;99.90;;;;;;4969163;28;20723;-64
2023/12/01 04:35:30;;;;;;;32.67;14.27;;;1.40;99.90;;;;;;4968357;28;20019;-65
2023/12/01 04:37:57;;;;;;;33.33;14.55;;;1.40;99.90;;;;;;4958808;28;20539;-66
2023/12/01 04:40:23;;;;;;;35.40;14.38;;;1.40;99.90;;;;;;4968195;28;20555;-65
2023/12/01 04:42:51;;;;;;;32.97;13.38;;;1.40;99.90;;;;;;4974737;28;20122;-65
2023/12/01 04:45:21;;;;;;;32.53;14.10;;;1.40;99.90;;;;;;4968364;28;20062;-65
2023/12/01 04:47:51;;;;;;;32.40;13.93;;;1.40;99.90;;;;;;4969203;28;20050;-65
2023/12/01 04:50:28;;;;;;;33.72;13.55;;;1.40;99.90;;;;;;4963699;28;20472;-66
2023/12/01 04:53:02;;;;;;;30.83;14.45;;;1.40;99.90;;;;;;4971723;28;20557;-65
2023/12/01 04:55:29;;;;;;;36.35;15.18;;;1.50;99.90;;;;;;4972125;28;20109;-66
2023/12/01 04:57:56;;;;;;;34.65;15.40;;;1.40;99.90;;;;;;4961751;28;20043;-67
2023/12/01 05:00:26;;;;;;;36.50;16.02;;;1.40;99.90;;;;;;4967335;28;20045;-64
2023/12/01 05:02:52;;;;;;;39.38;16.70;;;1.30;99.90;;;;;;4976583;28;20039;-63
2023/12/01 05:05:22;;;;;;;38.30;16.42;;;1.40;99.90;;;;;;4972070;28;20035;-64
2023/12/01 05:07:50;;;;;;;39.03;15.13;;;1.30;99.90;;;;;;4971998;28;20033;-65
2023/12/01 05:10:17;;;;;;;43.17;16.30;;;1.30;99.90;;;;;;4971445;28;20046;-64
2023/12/01 05:12:50;;;;;;;38.55;15.15;;;1.30;99.90;;;;;;4972516;28;20062;-65
2023/12/01 05:15:21;;;;;;;37.90;16.38;;;1.30;99.90;;;;;;4971782;28;20035;-65
2023/12/01 05:17:49;;;;;;;51.08;19.85;;;1.30;99.90;;;;;;4971875;28;20035;-66
2023/12/01 05:20:15;;;;;;;45.13;18.67;;;1.30;99.90;;;;;;4971200;28;20113;-66
2023/12/01 05:22:49;;;;;;;47.70;19.30;;;1.30;99.90;;;;;;4971973;28;20476;-65
2023/12/01 05:25:16;;;;;;;47.60;18.75;;;1.30;99.90;;;;;;4971085;28;20473;-67
2023/12/01 05:27:47;;;;;;;41.00;17.38;;;1.30;99.90;;;;;;4971533;28;20516;-65
2023/12/01 05:30:15;;;;;;;40.50;15.63;;;1.30;99.90;;;;;;4971199;28;20191;-67
2023/12/01 05:32:42;;;;;;;38.75;16.30;;;1.30;99.90;;;;;;4972250;28;20534;-67
2023/12/01 05:35:12;;;;;;;38.00;15.27;;;1.30;99.90;;;;;;4972064;28;20041;-67
2023/12/01 05:37:39;;;;;;;39.73;15.17;;;1.30;99.90;;;;;;4974206;28;20035;-67
2023/12/01 05:40:06;;;;;;;32.63;14.32;;;1.30;99.90;;;;;;4972244;28;20286;-66
2023/12/01 05:42:33;;;;;;;35.95;14.73;;;1.30;99.90;;;;;;4970755;28;20026;-67
2023/12/01 05:44:58;;;;;;;36.38;16.23;;;1.40;99.90;;;;;;4971906;28;20037;-65
2023/12/01 05:47:24;;;;;;;40.30;17.23;;;1.40;99.90;;;;;;4970978;28;20097;-67
2023/12/01 05:49:50;;;;;;;42.42;16.73;;;1.30;99.90;;;;;;4971853;28;20038;-66
2023/12/01 05:52:15;;;;;;;41.72;16.00;;;1.30;99.90;;;;;;4969761;28;20491;-68
2023/12/01 05:54:42;;;;;;;39.45;16.08;;;1.30;99.90;;;;;;4971068;28;20027;-66
2023/12/01 05:57:07;;;;;;;38.92;16.83;;;1.30;99.90;;;;;;4966480;28;20034;-68
2023/12/01 05:59:33;;;;;;;41.75;16.45;;;1.30;99.90;;;;;;4965874;28;20607;-66
2023/12/01 06:01:59;;;;;;;41.75;15.82;;;1.40;99.90;;;;;;4970164;28;20038;-67
2023/12/01 06:04:25;;;;;;;40.92;16.05;;;1.40;99.90;;;;;;4969576;28;20759;-66
2023/12/01 06:06:51;;;;;;;36.35;15.32;;;1.40;99.90;;;;;;4971835;28;20455;-67
2023/12/01 06:09:17;;;;;;;38.17;15.18;;;1.40;99.90;;;;;;4968223;28;20043;-67
2023/12/01 06:11:44;;;;;;;34.65;14.30;;;1.40;99.90;;;;;;4970886;28;20045;-67
2023/12/01 06:14:09;;;;;;;36.60;15.35;;;1.40;99.90;;;;;;4968171;28;20468;-68
2023/12/01 06:16:35;;;;;;;37.35;15.57;;;1.40;99.90;;;;;;4959736;28;20038;-68
2023/12/01 06:19:01;;;;;;;37.55;15.10;;;1.40;99.90;;;;;;4969843;28;20173;-68
2023/12/01 06:21:27;;;;;;;35.67;13.88;;;1.40;99.90;;;;;;4969280;28;20031;-68
2023/12/01 06:23:52;;;;;;;44.10;16.67;;;1.40;99.90;;;;;;4954544;28;20369;-68
2023/12/01 06:26:18;;;;;;;52.05;20.77;;;1.40;99.90;;;;;;4970615;28;20059;-69
2023/12/01 06:28:44;;;;;;;42.70;17.52;;;1.40;99.90;;;;;;4969012;28;20022;-68
2023/12/01 06:31:10;;;;;;;42.33;16.55;;;1.40;99.90;;;;;;4970528;28;20035;-69
2023/12/01 06:33:35;;;;;;;42.78;16.30;;;1.50;99.90;;;;;;4969086;28;20045;-66
2023/12/01 06:36:01;;;;;;;44.28;16.58;;;1.50;99.90;;;;;;4974914;28;20279;-65
2023/12/01 06:38:27;;;;;;;40.25;15.90;;;1.40;99.90;;;;;;4970066;28;20484;-66
2023/12/01 06:40:52;;;;;;;42.30;16.20;;;1.40;99.90;;;;;;4968655;28;20023;-65
2023/12/01 06:43:18;;;;;;;38.60;14.93;;;1.40;99.90;;;;;;4970148;28;20056;-66
2023/12/01 06:45:44;;;;;;;39.70;15.23;;;1.40;99.90;;;;;;4966767;28;20247;-66
2023/12/01 06:48:10;;;;;;;38.28;16.05;;;1.40;99.90;;;;;;4952503;28;20081;-66
2023/12/01 06:50:36;;;;;;;32.92;13.77;;;1.40;99.90;;;;;;4963286;28;20030;-66
2023/12/01 06:53:02;;;;;;;35.25;13.93;;;1.40;99.90;;;;;;4971003;28;20026;-63
2023/12/01 06:55:27;;;;;;;40.53;14.90;;;1.50;99.90;;;;;;4969024;28;20177;-64
2023/12/01 06:57:53;;;;;;;37.50;15.05;;;1.50;99.90;;;;;;4970098;28;20039;-67
2023/12/01 07:00:29;;;;;;;43.38;16.05;;;1.50;99.90;;;;;;4968174;28;20240;-69
2023/12/01 07:03:00;;;;;;;40.30;15.85;;;1.50;99.90;;;;;;4970141;28;20042;-65
2023/12/01 07:05:26;;;;;;;;;;;1.50;99.90;;;;;;4969061;28;20081;-65
2023/12/01 07:07:53;;;;;;;32.15;13.38;;;1.50;99.90;;;;;;4990101;28;19996;-65
2023/12/01 07:10:19;;;;;;;35.80;14.55;;;1.60;99.90;;;;;;4970923;28;20113;-67
2023/12/01 07:12:45;;;;;;;34.72;13.57;;;1.50;99.90;;;;;;4970047;28;20054;-65
2023/12/01 07:15:13;;;;;;;36.90;14.88;;;1.50;99.90;;;;;;4968671;28;20469;-65
2023/12/01 07:17:39;;;;;;;31.75;13.93;;;1.50;99.90;;;;;;4969253;28;20038;-66
2023/12/01 07:20:13;;;;;;;114.78;18.00;;;1.50;99.90;;;;;;4969696;28;20030;-64
2023/12/01 07:22:43;;;;;;;149.30;19.02;;;1.40;99.90;;;;;;4973695;28;20026;-64
2023/12/01 07:25:10;;;;;;;43.55;16.15;;;1.40;99.90;;;;;;4967035;28;20051;-64
2023/12/01 07:27:40;;;;;;;103.25;17.83;;;1.30;99.90;;;;;;4969608;28;20035;-64
2023/12/01 07:30:06;;;;;;;49.83;16.58;;;1.40;99.90;;;;;;4966231;28;20129;-65
2023/12/01 07:32:33;;;;;;;47.95;17.75;;;1.40;99.90;;;;;;4968940;28;20031;-65
2023/12/01 07:34:58;;;;;;;41.65;16.75;;;1.40;99.90;;;;;;4970374;28;20070;-66
2023/12/01 07:37:24;;;;;;;44.63;18.02;;;1.40;99.90;;;;;;4976921;28;20065;-66
2023/12/01 07:39:50;;;;;;;56.05;19.90;;;1.40;99.90;;;;;;4969471;28;20039;-65
2023/12/01 07:42:16;;;;;;;100.97;18.58;;;1.40;99.90;;;;;;4969510;28;20046;-64
2023/12/01 07:44:42;;;;;;;47.55;17.35;;;1.50;99.90;;;;;;4963380;28;20038;-65
2023/12/01 07:47:11;;;;;;;44.72;16.60;;;1.50;99.90;;;;;;4969741;28;20035;-66
2023/12/01 07:49:37;;;;;;;33.00;13.25;;;1.50;99.90;;;;;;4968532;28;20038;-67
2023/12/01 07:52:06;;;;;;;45.33;18.67;;;1.50;99.90;;;;;;4968195;28;20042;-68
2023/12/01 07:54:33;;;;;;;246.18;23.42;;;1.50;99.90;;;;;;4947449;28;20101;-69
2023/12/01 07:56:59;;;;;;;193.45;20.35;;;1.50;99.90;;;;;;4969276;28;20547;-67
2023/12/01 07:59:24;;;;;;;83.72;16.90;;;1.50;99.90;;;;;;4950246;28;20022;-67
2023/12/01 08:01:51;;;;;;;52.58;16.73;;;1.50;99.90;;;;;;4951840;28;20046;-67
2023/12/01 08:04:16;;;;;;;74.78;18.63;;;1.60;99.90;;;;;;4967081;28;20043;-67
2023/12/01 08:06:42;;;;;;;40.10;17.55;;;1.50;99.90;;;;;;4973877;28;20046;-65
2023/12/01 08:09:07;;;;;;;62.25;17.17;;;1.50;99.90;;;;;;4948549;28;20041;-66
2023/12/01 08:11:33;;;;;;;36.72;15.88;;;1.60;99.90;;;;;;4966616;28;20038;-66
2023/12/01 08:13:59;;;;;;;46.25;17.10;;;1.60;99.90;;;;;;4965310;28;20026;-70
2023/12/01 08:16:24;;;;;;;62.85;15.45;;;1.60;99.90;;;;;;4965292;28;20097;-66
2023/12/01 08:18:50;;;;;;;97.20;19.80;;;1.60;99.90;;;;;;4969207;28;20165;-69
2023/12/01 08:21:16;;;;;;;50.17;17.70;;;1.50;99.90;;;;;;4982772;28;20138;-68
2023/12/01 08:23:41;;;;;;;54.53;20.00;;;1.50;99.90;;;;;;4967526;28;20027;-70
2023/12/01 08:26:09;;;;;;;46.75;19.08;;;1.50;99.90;;;;;;4968660;28;20134;-67
2023/12/01 08:28:35;;;;;;;52.35;20.27;;;1.50;99.90;;;;;;4971240;28;20388;-67
2023/12/01 08:31:00;;;;;;;50.95;19.90;;;1.60;99.90;;;;;;4969862;28;20041;-67
2023/12/01 08:33:26;;;;;;;47.58;18.70;;;1.60;99.90;;;;;;4972207;28;20042;-65
2023/12/01 08:35:51;;;;;;;61.05;26.30;;;1.60;99.90;;;;;;4976567;28;20411;-66
2023/12/01 08:38:17;;;;;;;67.47;27.15;;;1.60;99.90;;;;;;4971657;28;20158;-65
2023/12/01 08:40:43;;;;;;;66.50;28.20;;;1.50;99.90;;;;;;4961365;28;20027;-66
2023/12/01 08:43:09;;;;;;;67.13;25.63;;;1.50;99.90;;;;;;4959326;28;20433;-66
2023/12/01 08:45:35;;;;;;;74.43;28.15;;;1.50;99.90;;;;;;4954609;28;20170;-66
2023/12/01 08:48:00;;;;;;;73.00;26.15;;;1.50;99.90;;;;;;4972757;28;20487;-68
2023/12/01 08:50:26;;;;;;;62.33;22.58;;;1.50;99.90;;;;;;4971891;28;20479;-68
2023/12/01 08:52:52;;;;;;;57.33;20.95;;;1.60;99.90;;;;;;4973155;28;20042;-66
2023/12/01 08:55:18;;;;;;;57.53;21.33;;;1.50;99.90;;;;;;4986997;28;20608;-64
2023/12/01 08:57:43;;;;;;;63.30;21.55;;;1.60;99.90;;;;;;4971443;28;20027;-67
2023/12/01 09:00:10;;;;;;;54.17;21.02;;;1.60;99.90;;;;;;4955683;28;20058;-69
2023/12/01 09:02:35;;;;;;;53.08;20.70;;;1.60;99.90;;;;;;4971965;28;20042;-65
2023/12/01 09:05:02;;;;;;;43.58;17.63;;;1.60;99.90;;;;;;4972865;28;20391;-65
2023/12/01 09:07:27;;;;;;;44.83;17.02;;;1.60;99.90;;;;;;4972357;28;20070;-68
2023/12/01 09:09:53;;;;;;;40.45;16.33;;;1.60;99.90;;;;;;4972745;28;20058;-70
2023/12/01 09:12:19;;;;;;;41.17;16.83;;;1.60;99.90;;;;;;4972417;28;20066;-71
2023/12/01 09:14:44;;;;;;;45.08;17.42;;;1.70;99.90;;;;;;4958306;28;20030;-70
2023/12/01 09:17:10;;;;;;;48.05;18.48;;;1.70;99.90;;;;;;4972937;28;20762;-69
2023/12/01 09:19:35;;;;;;;55.58;21.60;;;1.70;99.90;;;;;;4959704;28;20047;-70
2023/12/01 09:22:01;;;;;;;58.35;23.90;;;1.80;99.90;;;;;;4972828;28;20023;-69
2023/12/01 09:24:26;;;;;;;46.60;18.33;;;1.80;99.90;;;;;;4971731;28;20483;-71
2023/12/01 09:26:52;;;;;;;39.70;16.23;;;1.90;99.90;;;;;;4971948;28;20109;-64
2023/12/01 09:29:18;;;;;;;65.93;18.45;;;1.90;99.90;;;;;;4972364;28;20045;-67
2023/12/01 09:31:48;;;;;;;56.30;16.63;;;2.00;99.90;;;;;;4972162;28;20093;-68
2023/12/01 09:34:13;;;;;;;42.45;16.80;;;1.90;99.90;;;;;;4963864;28;20027;-66
2023/12/01 09:36:42;;;;;;;42.10;17.02;;;1.90;99.90;;;;;;4971310;28;20041;-67
2023/12/01 09:39:08;;;;;;;73.97;23.70;;;1.90;99.90;;;;;;4960908;28;20090;-66
2023/12/01 09:41:38;;;;;;;58.42;20.27;;;1.80;99.90;;;;;;4952438;29;20090;-67
2023/12/01 09:44:05;;;;;;;43.60;16.85;;;1.80;99.90;;;;;;4962227;28;20030;-66
2023/12/01 09:46:35;;;;;;;52.95;20.48;;;1.80;99.90;;;;;;4971081;28;20044;-66
2023/12/01 09:49:05;;;;;;;51.40;21.70;;;1.90;99.90;;;;;;4972162;28;20058;-65
2023/12/01 09:51:36;;;;;;;50.15;20.15;;;1.90;99.90;;;;;;4971354;28;20038;-64
2023/12/01 09:54:02;;;;;;;59.95;20.20;;;2.00;99.90;;;;;;4972306;28;20035;-65
2023/12/01 09:56:28;;;;;;;44.33;16.80;;;2.00;99.90;;;;;;4971375;28;20031;-65
2023/12/01 09:58:58;;;;;;;42.78;16.55;;;1.90;99.90;;;;;;4971871;28;20089;-64
2023/12/01 10:01:24;;;;;;;39.85;15.25;;;2.00;99.90;;;;;;4972341;28;20145;-65
2023/12/01 10:03:50;;;;;;;45.70;16.13;;;1.90;99.90;;;;;;4953439;28;20038;-64
2023/12/01 10:06:16;;;;;;;35.25;13.93;;;1.90;99.90;;;;;;4970715;28;20033;-64
2023/12/01 10:08:42;;;;;;;39.72;16.13;;;1.80;99.90;;;;;;4971190;28;20035;-63
2023/12/01 10:11:21;;;;;;;40.92;16.65;;;1.80;99.90;;;;;;4971145;28;20540;-63
2023/12/01 10:13:49;;;;;;;36.40;15.27;;;1.80;99.90;;;;;;4970944;28;20713;-65
2023/12/01 10:16:15;;;;;;;36.00;14.60;;;1.80;99.90;;;;;;4971593;28;20031;-65
2023/12/01 10:18:56;;;;;;;44.42;17.90;;;1.80;99.90;;;;;;4970923;28;20077;-64
2023/12/01 10:21:39;;;;;;;42.83;17.10;;;1.80;99.90;;;;;;4971200;28;20050;-66
2023/12/01 10:24:21;;;;;;;38.95;15.75;;;1.80;99.90;;;;;;4960267;28;20502;-66
2023/12/01 10:26:52;;;;;;;38.15;15.38;;;1.80;99.90;;;;;;4973816;28;20638;-63
2023/12/01 10:29:47;;;;;;;51.97;18.33;;;1.80;99.90;;;;;;4973063;28;20562;-62
2023/12/01 10:32:14;;;;;;;50.17;18.65;;;1.80;99.90;;;;;;4968500;28;20045;-62
2023/12/01 10:34:47;;;;;;;50.33;18.58;;;1.80;99.90;;;;;;4970686;28;20050;-63
2023/12/01 10:37:13;;;;;;;54.08;20.20;;;1.90;99.90;;;;;;4973355;28;20035;-64
2023/12/01 10:39:39;;;;;;;48.47;18.13;;;1.90;99.90;;;;;;4973410;28;20042;-66
2023/12/01 10:42:09;;;;;;;43.17;16.08;;;1.90;99.90;;;;;;4982363;28;20030;-62
2023/12/01 10:44:35;;;;;;;36.25;14.70;;;1.90;99.90;;;;;;4990054;28;20034;-63
2023/12/01 10:47:02;;;;;;;37.22;14.15;;;1.90;99.90;;;;;;4975046;28;20097;-63
2023/12/01 10:49:30;;;;;;;41.20;14.52;;;1.90;99.90;;;;;;4969919;28;20046;-66
2023/12/01 10:51:56;;;;;;;39.33;13.88;;;1.90;99.90;;;;;;4984646;28;20044;-65
2023/12/01 10:54:27;;;;;;;35.40;14.25;;;1.90;99.90;;;;;;4990551;28;20034;-63
2023/12/01 10:56:52;;;;;;;37.63;15.02;;;1.90;99.90;;;;;;4989579;28;20454;-65
2023/12/01 10:59:20;;;;;;;35.33;14.38;;;1.90;99.90;;;;;;4971221;28;20034;-66
2023/12/01 11:01:49;;;;;;;35.40;13.82;;;1.90;99.90;;;;;;4981220;28;20479;-67
2023/12/01 11:04:22;;;;;;;36.58;13.85;;;1.90;99.90;;;;;;4986547;28;20078;-68
2023/12/01 11:07:06;;;;;;;36.60;14.25;;;1.90;99.90;;;;;;4971197;28;20042;-64
2023/12/01 11:09:52;;;;;;;37.53;15.63;;;2.00;99.90;;;;;;4977022;28;20046;-67
2023/12/01 11:12:28;;;;;;;46.28;18.20;;;1.90;99.90;;;;;;4986687;28;20027;-65
2023/12/01 11:14:56;;;;;;;59.08;23.35;;;1.80;99.90;;;;;;4989452;28;20104;-64
2023/12/01 11:17:22;;;;;;;46.75;18.08;;;1.80;99.90;;;;;;4977402;28;20038;-62
2023/12/01 11:19:48;;;;;;;43.70;17.60;;;1.70;99.90;;;;;;4977985;28;20042;-64
2023/12/01 11:22:32;;;;;;;37.05;15.55;;;1.70;99.90;;;;;;4970468;28;20384;-64
2023/12/01 11:24:58;;;;;;;38.40;15.02;;;1.70;99.90;;;;;;4971667;28;20046;-63
2023/12/01 11:27:25;;;;;;;38.55;14.98;;;1.70;99.90;;;;;;4969639;28;20038;-64
2023/12/01 11:30:07;;;;;;;53.05;17.17;;;1.70;99.90;;;;;;4969543;28;20223;-64
2023/12/01 11:32:33;;;;;;;41.95;15.32;;;1.70;99.90;;;;;;4968283;28;20034;-66
2023/12/01 11:35:08;;;;;;;32.60;12.95;;;1.70;99.90;;;;;;4970127;28;20039;-64
2023/12/01 11:38:03;;;;;;;33.53;13.32;;;1.70;99.90;;;;;;4969743;28;20524;-66
2023/12/01 11:40:38;;;;;;;31.48;12.38;;;1.70;99.90;;;;;;4955921;28;20043;-64
2023/12/01 11:43:07;;;;;;;32.25;12.77;;;1.70;99.90;;;;;;4965234;28;20043;-64
2023/12/01 11:45:37;;;;;;;33.55;12.73;;;1.70;99.90;;;;;;4959783;28;20015;-66
2023/12/01 11:48:07;;;;;;;30.50;12.00;;;1.80;99.90;;;;;;4950877;29;20039;-63
2023/12/01 11:50:33;;;;;;;29.67;11.70;;;1.80;99.90;;;;;;4960502;28;20038;-65
2023/12/01 11:52:59;;;;;;;29.88;12.27;;;1.80;99.90;;;;;;4969543;28;20037;-64
2023/12/01 11:55:25;;;;;;;31.73;11.80;;;1.80;99.90;;;;;;4968403;28;20434;-63
2023/12/01 11:57:53;;;;;;;32.95;12.82;;;1.80;99.90;;;;;;4969049;28;20045;-64
2023/12/01 12:00:19;;;;;;;33.03;12.45;;;1.80;99.90;;;;;;4969246;28;20038;-64
2023/12/01 12:02:45;;;;;;;32.35;12.40;;;1.80;99.90;;;;;;4986880;28;20057;-63
2023/12/01 12:05:12;;;;;;;33.60;13.30;;;1.90;99.90;;;;;;4971394;28;20495;-64
2023/12/01 12:07:38;;;;;;;29.05;12.48;;;1.90;99.90;;;;;;4968944;28;20460;-63
2023/12/01 12:10:08;;;;;;;32.20;12.77;;;1.90;99.90;;;;;;4968952;28;20043;-65
2023/12/01 12:12:34;;;;;;;28.80;12.05;;;1.90;99.90;;;;;;4950324;29;20035;-66
2023/12/01 12:15:10;;;;;;;32.78;12.30;;;1.90;99.90;;;;;;4955734;28;20031;-64
2023/12/01 12:17:37;;;;;;;30.58;12.02;;;1.90;99.90;;;;;;4969431;28;20106;-66
2023/12/01 12:20:05;;;;;;;69.57;21.40;;;1.90;99.90;;;;;;4969454;28;20031;-63
2023/12/01 12:22:31;;;;;;;75.82;24.42;;;1.90;99.90;;;;;;4966560;28;20121;-64
2023/12/01 12:24:56;;;;;;;80.38;22.88;;;1.90;99.90;;;;;;4960792;28;20162;-64
2023/12/01 12:27:22;;;;;;;61.85;21.33;;;1.90;99.90;;;;;;4950760;28;20473;-64
2023/12/01 12:29:49;;;;;;;64.65;20.35;;;1.90;99.90;;;;;;4950384;28;20074;-65
2023/12/01 12:32:15;;;;;;;77.28;23.95;;;1.90;99.90;;;;;;4964592;28;20023;-66
2023/12/01 12:34:41;;;;;;;52.08;19.27;;;1.90;99.90;;;;;;4949792;28;20044;-66
2023/12/01 12:37:11;;;;;;;47.05;18.35;;;1.90;99.90;;;;;;4953294;28;20023;-66
2023/12/01 12:39:36;;;;;;;38.55;16.17;;;1.80;99.90;;;;;;4929516;28;20065;-68